createdAt,value
2022-11-26T00:01:18.619Z,10.70
2022-11-26T00:06:29.338Z,10.73
2022-11-26T00:11:21.601Z,11.70
2022-11-26T00:16:15.053Z,10.80
2022-11-26T00:21:21.837Z,10.20
2022-11-26T00:26:17.782Z,10.77
2022-11-26T00:31:15.685Z,11.13
2022-11-26T00:36:27.368Z,10.93
2022-11-26T00:41:22.773Z,10.73
2022-11-26T00:46:20.136Z,10.17
2022-11-26T00:51:18.754Z,9.67
2022-11-26T00:56:19.826Z,9.40
2022-11-26T01:01:23.414Z,9.10
2022-11-26T01:06:24.194Z,10.27
2022-11-26T01:11:19.341Z,9.43
2022-11-26T01:16:34.967Z,9.83
2022-11-26T01:21:30.102Z,9.33
2022-11-26T01:26:27.821Z,10.33
2022-11-26T01:31:23.094Z,10.53
2022-11-26T01:36:27.246Z,10.47
2022-11-26T01:41:31.690Z,9.80
2022-11-26T01:46:26.471Z,10.00
2022-11-26T01:51:30.255Z,11.13
2022-11-26T01:56:38.076Z,10.53
2022-11-26T02:07:22.991Z,10.03
2022-11-26T02:12:15.200Z,10.87
2022-11-26T02:17:30.460Z,10.93
2022-11-26T02:22:34.372Z,11.53
2022-11-26T02:27:55.086Z,10.67
2022-11-26T02:32:58.644Z,11.80
2022-11-26T02:38:05.430Z,11.70
2022-11-26T02:42:57.806Z,12.40
2022-11-26T02:47:54.152Z,12.43
2022-11-26T02:52:49.819Z,11.93
2022-11-26T02:57:47.369Z,12.00
2022-11-26T03:03:23.056Z,12.07
2022-11-26T03:08:16.210Z,12.67
2022-11-26T03:13:08.352Z,12.93
2022-11-26T03:18:00.608Z,12.13
2022-11-26T03:22:52.759Z,11.70
2022-11-26T03:27:44.981Z,13.07
2022-11-26T03:32:37.701Z,11.63
2022-11-26T03:37:29.958Z,12.43
2022-11-26T03:42:22.209Z,12.57
2022-11-26T03:47:14.374Z,11.30
2022-11-26T03:52:06.580Z,12.10
2022-11-26T03:56:58.739Z,11.27
2022-11-26T04:01:50.992Z,11.83
2022-11-26T04:06:43.168Z,12.47
2022-11-26T04:11:35.432Z,12.70
2022-11-26T04:16:27.708Z,13.43
2022-11-26T04:21:19.957Z,12.43
2022-11-26T04:26:12.267Z,13.50
2022-11-26T04:31:04.555Z,13.93
2022-11-26T04:35:56.716Z,13.20
2022-11-26T04:40:49.360Z,13.87
2022-11-26T04:45:41.634Z,14.10
2022-11-26T04:50:33.862Z,14.37
2022-11-26T04:55:26.052Z,15.30
2022-11-26T05:00:19.131Z,15.77
2022-11-26T05:05:12.068Z,17.97
2022-11-26T05:10:05.544Z,17.77
2022-11-26T05:14:59.957Z,18.47
2022-11-26T05:19:52.126Z,17.03
2022-11-26T05:24:44.368Z,14.80
2022-11-26T05:29:36.563Z,14.07
2022-11-26T05:34:28.713Z,14.90
2022-11-26T05:39:20.975Z,14.40
2022-11-26T05:44:13.168Z,15.23
2022-11-26T05:49:05.675Z,15.30
2022-11-26T05:53:57.918Z,15.33
2022-11-26T05:58:50.070Z,15.63
2022-11-26T06:03:42.453Z,16.40
2022-11-26T06:08:34.971Z,17.43
2022-11-26T06:13:27.098Z,17.00
2022-11-26T06:18:19.447Z,15.13
2022-11-26T06:23:11.836Z,16.03
2022-11-26T06:28:04.119Z,17.07
2022-11-26T06:32:56.323Z,16.97
2022-11-26T06:37:48.601Z,17.03
2022-11-26T06:42:40.741Z,16.93
2022-11-26T06:47:33.015Z,16.33
2022-11-26T06:52:25.321Z,17.57
2022-11-26T06:57:17.586Z,16.53
2022-11-26T07:02:10.666Z,16.67
2022-11-26T07:07:02.812Z,17.27
2022-11-26T07:11:54.985Z,16.80
2022-11-26T07:16:47.123Z,17.77
2022-11-26T07:21:39.286Z,16.60
2022-11-26T07:26:31.479Z,18.13
2022-11-26T07:31:24.037Z,16.80
2022-11-26T07:36:19.060Z,16.73
2022-11-26T07:41:13.665Z,17.13
2022-11-26T07:46:07.638Z,16.70
2022-11-26T07:51:00.759Z,15.93
2022-11-26T07:55:52.891Z,15.70
2022-11-26T08:00:45.069Z,14.30
2022-11-26T08:05:42.241Z,13.87
2022-11-26T08:10:34.414Z,15.47
2022-11-26T08:15:26.804Z,12.70
2022-11-26T08:20:19.071Z,13.30
2022-11-26T08:25:11.269Z,13.73
2022-11-26T08:30:04.161Z,12.67
2022-11-26T08:34:56.312Z,12.07
2022-11-26T08:39:48.497Z,13.50
2022-11-26T08:44:40.794Z,12.60
2022-11-26T08:49:33.747Z,11.77
2022-11-26T08:54:26.106Z,9.53
2022-11-26T08:59:22.474Z,9.27
2022-11-26T09:04:14.794Z,8.27
2022-11-26T09:09:14.403Z,8.57
2022-11-26T09:14:07.138Z,7.83
2022-11-26T09:19:03.575Z,7.83
2022-11-26T09:23:55.980Z,7.47
2022-11-26T09:28:49.371Z,6.50
2022-11-26T09:33:42.299Z,7.20
2022-11-26T09:38:35.584Z,6.97
2022-11-26T09:43:39.757Z,7.60
2022-11-26T09:48:33.993Z,7.00
2022-11-26T09:53:30.988Z,6.50
2022-11-26T09:59:01.822Z,6.60
2022-11-26T10:03:54.250Z,7.03
2022-11-26T10:09:20.199Z,6.33
2022-11-26T10:14:46.198Z,6.63
2022-11-26T10:19:59.958Z,6.70
2022-11-26T10:24:53.397Z,6.97
2022-11-26T10:29:56.757Z,6.57
2022-11-26T10:34:53.234Z,6.33
2022-11-26T10:39:45.462Z,5.47
2022-11-26T10:44:41.618Z,5.10
2022-11-26T10:49:33.978Z,5.70
2022-11-26T10:54:35.407Z,4.63
2022-11-26T10:59:31.374Z,5.10
2022-11-26T11:04:31.084Z,4.27
2022-11-26T11:09:31.344Z,3.87
2022-11-26T11:14:32.679Z,4.70
2022-11-26T11:19:26.665Z,4.13
2022-11-26T11:24:22.169Z,4.20
2022-11-26T11:29:32.554Z,3.97
2022-11-26T11:34:39.460Z,3.33
2022-11-26T11:39:34.861Z,4.27
2022-11-26T11:44:48.376Z,3.77
2022-11-26T11:50:11.836Z,4.20
2022-11-26T11:55:17.482Z,4.23
2022-11-26T12:00:17.329Z,3.20
2022-11-26T12:05:37.510Z,4.00
2022-11-26T12:11:05.145Z,3.47
2022-11-26T12:16:06.112Z,3.80
2022-11-26T12:21:15.072Z,4.13
2022-11-26T12:26:12.212Z,3.70
2022-11-26T12:31:31.740Z,3.20
2022-11-26T12:37:00.492Z,3.57
2022-11-26T12:41:58.363Z,3.70
2022-11-26T12:47:20.352Z,3.40
2022-11-26T12:52:18.685Z,3.53
2022-11-26T12:57:27.134Z,3.33
2022-11-26T13:02:26.314Z,3.10
2022-11-26T13:07:18.564Z,3.47
2022-11-26T13:12:38.877Z,3.53
2022-11-26T13:17:49.890Z,3.10
2022-11-26T13:23:18.536Z,3.43
2022-11-26T13:28:36.747Z,3.50
2022-11-26T13:33:49.874Z,4.07
2022-11-26T13:39:04.417Z,3.23
2022-11-26T13:44:02.512Z,3.93
2022-11-26T13:49:03.575Z,3.37
2022-11-26T13:54:05.225Z,3.67
2022-11-26T13:59:12.559Z,6.10
2022-11-26T14:04:10.158Z,5.13
2022-11-26T14:09:02.848Z,7.30
2022-11-26T14:14:25.748Z,5.87
2022-11-26T14:19:17.959Z,4.47
2022-11-26T14:24:10.107Z,4.30
2022-11-26T14:29:08.320Z,14.13
2022-11-26T14:34:16.038Z,7.30
2022-11-26T14:39:14.046Z,8.20
2022-11-26T14:44:07.810Z,4.80
2022-11-26T14:49:01.460Z,3.70
2022-11-26T14:53:55.504Z,4.27
2022-11-26T14:58:51.955Z,4.47
2022-11-26T15:03:58.033Z,5.27
2022-11-26T15:08:50.202Z,4.90
2022-11-26T15:13:46.411Z,5.53
2022-11-26T15:18:39.702Z,6.03
2022-11-26T15:23:36.434Z,9.87
2022-11-26T15:28:29.020Z,7.13
2022-11-26T15:33:21.759Z,7.73
2022-11-26T15:38:20.047Z,6.53
2022-11-26T15:43:24.156Z,6.77
2022-11-26T15:48:50.951Z,8.33
2022-11-26T15:53:48.090Z,6.67
2022-11-26T15:58:41.691Z,6.73
2022-11-26T16:03:45.416Z,7.07
2022-11-26T16:08:39.462Z,6.33
2022-11-26T16:13:33.140Z,7.40
2022-11-26T16:18:30.723Z,5.30
2022-11-26T16:23:29.574Z,5.53
2022-11-26T16:28:21.713Z,8.23
2022-11-26T16:33:13.974Z,9.67
2022-11-26T16:38:06.234Z,7.07
2022-11-26T16:42:58.428Z,8.70
2022-11-26T16:47:55.408Z,7.83
2022-11-26T16:52:48.263Z,8.37
2022-11-26T16:57:41.300Z,8.23
2022-11-26T17:02:33.738Z,8.20
2022-11-26T17:07:32.874Z,9.80
2022-11-26T17:12:26.097Z,13.37
2022-11-26T17:17:23.972Z,10.43
2022-11-26T17:22:17.694Z,8.93
2022-11-26T17:27:15.173Z,8.70
2022-11-26T17:32:11.756Z,8.43
2022-11-26T17:37:04.129Z,6.80
2022-11-26T17:41:56.438Z,7.13
2022-11-26T17:47:15.117Z,10.07
2022-11-26T17:52:01.668Z,13.13
2022-11-26T17:56:54.760Z,9.40
2022-11-26T18:01:47.136Z,9.53
2022-11-26T18:07:16.005Z,10.60
2022-11-26T18:12:14.750Z,10.07
2022-11-26T18:17:09.909Z,9.63
2022-11-26T18:22:02.441Z,8.93
2022-11-26T18:26:56.821Z,7.53
2022-11-26T18:31:49.010Z,7.07
2022-11-26T18:36:41.129Z,8.77
2022-11-26T18:41:34.086Z,7.90
2022-11-26T18:46:26.290Z,8.17
2022-11-26T18:51:18.892Z,9.50
2022-11-26T18:56:16.049Z,7.17
2022-11-26T19:01:29.424Z,8.53
2022-11-26T19:06:27.570Z,8.37
2022-11-26T19:11:22.250Z,7.20
2022-11-26T19:16:17.038Z,7.27
2022-11-26T19:21:18.727Z,7.50
2022-11-26T19:26:11.082Z,7.90
2022-11-26T19:31:09.082Z,9.80
2022-11-26T19:36:07.474Z,9.23
2022-11-26T19:41:00.933Z,8.23
2022-11-26T19:46:13.874Z,8.23
2022-11-26T19:51:07.625Z,8.40
2022-11-26T19:56:02.511Z,29.93
2022-11-26T20:00:54.951Z,10.77
2022-11-26T20:05:47.253Z,8.80
2022-11-26T20:10:39.609Z,8.43
2022-11-26T20:15:32.438Z,7.60
2022-11-26T20:20:24.693Z,7.70
2022-11-26T20:25:17.065Z,9.97
2022-11-26T20:30:10.356Z,9.83
2022-11-26T20:35:02.512Z,8.90
2022-11-26T20:39:54.635Z,9.53
2022-11-26T20:44:46.853Z,10.23
2022-11-26T20:49:42.857Z,8.50
2022-11-26T20:54:35.516Z,9.20
2022-11-26T20:59:27.806Z,9.70
2022-11-26T21:10:01.684Z,11.10
2022-11-26T21:14:53.929Z,10.63
2022-11-26T21:19:46.061Z,11.53
2022-11-26T21:24:39.433Z,13.10
2022-11-26T21:29:32.990Z,17.57
2022-11-26T21:34:25.323Z,14.83
2022-11-26T21:39:17.616Z,18.47
2022-11-26T21:44:09.611Z,15.23
2022-11-26T21:49:01.796Z,13.83
2022-11-26T21:53:54.609Z,12.27
2022-11-26T21:58:47.115Z,11.50
2022-11-26T22:03:41.172Z,11.47
2022-11-26T22:08:35.225Z,10.37
2022-11-26T22:13:27.157Z,11.17
2022-11-26T22:18:19.120Z,11.67
2022-11-26T22:23:11.045Z,12.07
2022-11-26T22:28:03.051Z,11.90
2022-11-26T22:32:55.007Z,15.93
2022-11-26T22:37:49.406Z,11.30
2022-11-26T22:42:41.467Z,10.93
2022-11-26T22:47:33.400Z,11.87
2022-11-26T22:52:25.365Z,12.07
2022-11-26T22:57:22.334Z,12.57
2022-11-26T23:02:17.958Z,11.00
2022-11-26T23:07:09.969Z,11.93
2022-11-26T23:12:02.004Z,11.27
2022-11-26T23:16:53.978Z,11.63
2022-11-26T23:21:47.114Z,11.30
2022-11-26T23:26:40.137Z,19.33
2022-11-26T23:31:37.640Z,32.97
2022-11-26T23:36:30.602Z,28.33
2022-11-26T23:41:23.127Z,23.73
2022-11-26T23:46:21.669Z,17.97
2022-11-26T23:51:18.294Z,15.80
2022-11-26T23:56:16.352Z,12.97
